4XCDE LLHZ-LLHZ

Flight info

Callsign 4XCDE
Flight time 0h 8m
Altitude 800
Route CVFR
Aircraft C172/L-V/N

Departure

Time 2026-04-17 14:22
Airport Herzliya Airport (LLHZ)

Arrival

Time 2026-04-17 14:30
Airport Herzliya Airport (LLHZ)
Time Latitude Longitude Altitude Speed Heading
2026-04-17 14:12 32.18211 34.82838 94 ft 0 kts 290°
2026-04-17 14:16 32.18212 34.82833 94 ft 4 kts 273°
2026-04-17 14:16 32.18201 34.82818 94 ft 4 kts 176°
2026-04-17 14:17 32.18168 34.82919 94 ft 17 kts 109°
2026-04-17 14:17 32.18121 34.83042 96 ft 17 kts 121°
2026-04-17 14:17 32.18076 34.83184 99 ft 17 kts 109°
2026-04-17 14:17 32.18036 34.83315 102 ft 17 kts 109°
2026-04-17 14:18 32.17996 34.83452 105 ft 17 kts 108°
2026-04-17 14:18 32.17964 34.83566 108 ft 13 kts 106°
2026-04-17 14:18 32.17928 34.83672 113 ft 17 kts 103°
2026-04-17 14:18 32.17897 34.83791 117 ft 12 kts 108°
2026-04-17 14:19 32.17881 34.83848 120 ft 0 kts 95°
2026-04-17 14:20 32.17911 34.83858 123 ft 8 kts 313°
2026-04-17 14:21 32.17979 34.83630 111 ft 57 kts 289°
2026-04-17 14:21 32.18146 34.83083 231 ft 75 kts 288°
2026-04-17 14:21 32.18463 34.82605 436 ft 79 kts 339°
2026-04-17 14:21 32.19000 34.82668 680 ft 77 kts
2026-04-17 14:22 32.19475 34.82926 808 ft 83 kts 49°
2026-04-17 14:22 32.19639 34.83610 827 ft 93 kts 95°
2026-04-17 14:22 32.19448 34.84374 825 ft 99 kts 109°
2026-04-17 14:22 32.19215 34.85149 814 ft 100 kts 111°
2026-04-17 14:23 32.18779 34.85588 763 ft 81 kts 187°
2026-04-17 14:23 32.18254 34.85390 629 ft 77 kts 201°
2026-04-17 14:23 32.17809 34.85111 451 ft 70 kts 232°
2026-04-17 14:23 32.17711 34.84552 338 ft 70 kts 283°
2026-04-17 14:24 32.17871 34.84001 201 ft 70 kts 290°
2026-04-17 14:24 32.18013 34.83518 106 ft 53 kts 288°
2026-04-17 14:24 32.18165 34.82999 198 ft 73 kts 288°
2026-04-17 14:24 32.18484 34.82570 383 ft 78 kts 344°
2026-04-17 14:25 32.19017 34.82591 603 ft 79 kts
2026-04-17 14:25 32.19499 34.82815 758 ft 82 kts 51°
2026-04-17 14:25 32.19573 34.83497 814 ft 91 kts 105°
2026-04-17 14:25 32.19389 34.84238 809 ft 95 kts 107°
2026-04-17 14:26 32.19177 34.84997 786 ft 95 kts 116°
2026-04-17 14:26 32.18741 34.85444 682 ft 87 kts 174°
2026-04-17 14:26 32.18121 34.85310 555 ft 91 kts 199°
2026-04-17 14:26 32.17662 34.84958 429 ft 71 kts 250°
2026-04-17 14:27 32.17748 34.84400 349 ft 68 kts 288°
2026-04-17 14:27 32.17901 34.83893 163 ft 64 kts 289°
2026-04-17 14:27 32.18027 34.83462 104 ft 55 kts 288°
2026-04-17 14:27 32.18198 34.82934 209 ft 75 kts 289°
2026-04-17 14:28 32.18590 34.82619 413 ft 77 kts
2026-04-17 14:28 32.19108 34.82734 628 ft 79 kts 11°
2026-04-17 14:28 32.19554 34.83112 790 ft 88 kts 72°
2026-04-17 14:28 32.19456 34.83828 817 ft 92 kts 103°
2026-04-17 14:29 32.19288 34.84590 823 ft 96 kts 106°
2026-04-17 14:29 32.19060 34.85307 774 ft 87 kts 130°
2026-04-17 14:29 32.18542 34.85432 694 ft 79 kts 191°
2026-04-17 14:29 32.18029 34.85296 549 ft 72 kts 197°
2026-04-17 14:30 32.17643 34.84940 449 ft 74 kts 254°
2026-04-17 14:30 32.17751 34.84391 348 ft 69 kts 291°
2026-04-17 14:30 32.17911 34.83864 148 ft 65 kts 289°
2026-04-17 14:30 32.18037 34.83432 103 ft 45 kts 289°
2026-04-17 14:31 32.18123 34.83142 95 ft 32 kts 290°
2026-04-17 14:31 32.18160 34.83001 98 ft 13 kts 287°
2026-04-17 14:31 32.18165 34.82923 94 ft 14 kts 287°
2026-04-17 14:31 32.18216 34.82820 94 ft 10 kts 19°